Time;durP1;ratioP1;P1;durP2;ratioP2;P2;SDS_P1;SDS_P2;PMS_P1;PMS_P2;Temp;Humidity;BMP_temperature;BMP_pressure;BME280_temperature;BME280_humidity;BME280_pressure;Samples;Min_cycle;Max_cycle;Signal;HPM_P1;HPM_P2
2023/05/11 00:00:44;;;;;;;3.03;2.93;;;12.80;99.90;;;;;;5098180;28;20468;-67
2023/05/11 00:03:11;;;;;;;4.60;4.20;;;12.70;99.90;;;;;;5109119;28;20555;-68
2023/05/11 00:05:37;;;;;;;4.00;3.80;;;12.80;99.90;;;;;;5106069;28;20488;-67
2023/05/11 00:08:07;;;;;;;2.97;2.87;;;12.80;99.90;;;;;;5111732;28;20818;-68
2023/05/11 00:10:34;;;;;;;2.70;2.60;;;12.80;99.90;;;;;;5093800;28;20486;-68
2023/05/11 00:13:00;;;;;;;2.93;2.83;;;12.80;99.90;;;;;;5100549;28;20516;-67
2023/05/11 00:15:27;;;;;;;2.80;2.70;;;12.90;99.90;;;;;;5111064;28;20464;-68
2023/05/11 00:17:54;;;;;;;2.90;2.80;;;12.80;99.90;;;;;;5105338;28;20529;-67
2023/05/11 00:20:22;;;;;;;3.57;3.37;;;12.80;99.90;;;;;;5100201;28;20454;-68
2023/05/11 00:22:49;;;;;;;2.80;2.70;;;12.80;99.90;;;;;;5110346;28;20951;-68
2023/05/11 00:25:17;;;;;;;4.07;3.67;;;12.90;99.90;;;;;;5105948;28;20955;-67
2023/05/11 00:27:44;;;;;;;8.97;6.60;;;12.90;99.90;;;;;;5091529;28;20469;-68
2023/05/11 00:30:13;;;;;;;3.17;3.07;;;12.90;99.90;;;;;;5105691;28;20462;-68
2023/05/11 00:32:40;;;;;;;2.97;2.87;;;12.90;99.90;;;;;;5110954;28;20502;-68
2023/05/11 00:35:08;;;;;;;3.90;3.07;;;12.80;99.90;;;;;;5105657;28;20466;-67
2023/05/11 00:37:43;;;;;;;2.80;2.70;;;12.80;99.90;;;;;;5096294;28;20454;-67
2023/05/11 00:40:11;;;;;;;3.07;2.97;;;12.80;99.90;;;;;;5094557;28;20454;-67
2023/05/11 00:42:39;;;;;;;3.60;3.47;;;12.80;99.90;;;;;;5103995;28;20461;-68
2023/05/11 00:45:07;;;;;;;4.70;4.57;;;12.90;99.90;;;;;;5098320;27;20453;-67
2023/05/11 00:47:34;;;;;;;8.03;7.60;;;12.80;99.90;;;;;;5093709;28;21036;-67
2023/05/11 00:50:01;;;;;;;8.00;7.50;;;12.90;99.90;;;;;;5106002;28;20457;-67
2023/05/11 00:52:27;;;;;;;7.00;6.80;;;12.90;99.90;;;;;;5096741;28;20453;-68
2023/05/11 00:54:54;;;;;;;9.63;9.23;;;12.70;99.90;;;;;;5108748;28;20496;-67
2023/05/11 00:57:21;;;;;;;10.50;10.10;;;12.80;99.90;;;;;;5096342;28;20454;-67
2023/05/11 00:59:49;;;;;;;14.10;13.50;;;12.80;99.90;;;;;;5107069;28;20551;-67
2023/05/11 01:02:16;;;;;;;14.03;13.43;;;12.80;99.90;;;;;;5109261;28;20449;-68
2023/05/11 01:04:44;;;;;;;16.13;15.43;;;12.80;99.90;;;;;;5108682;28;20465;-67
2023/05/11 01:07:15;;;;;;;14.37;13.77;;;12.80;99.90;;;;;;5093958;28;20465;-67
2023/05/11 01:09:50;;;;;;;15.47;14.57;;;12.80;99.90;;;;;;5097994;28;20827;-67
2023/05/11 01:12:27;;;;;;;14.17;13.60;;;12.70;99.90;;;;;;5102597;28;20476;-67
2023/05/11 01:15:02;;;;;;;13.13;12.63;;;12.70;99.90;;;;;;5106257;28;21080;-68
2023/05/11 01:17:37;;;;;;;11.97;11.57;;;12.70;99.90;;;;;;5099079;28;20936;-68
2023/05/11 01:20:09;;;;;;;11.60;11.20;;;12.70;99.90;;;;;;5099343;28;20468;-68
2023/05/11 01:22:48;;;;;;;11.20;10.80;;;12.70;99.90;;;;;;5099712;28;20484;-67
2023/05/11 01:25:38;;;;;;;13.53;12.97;;;12.60;99.90;;;;;;5102608;28;20472;-68
2023/05/11 01:28:43;;;;;;;10.73;10.33;;;12.60;99.90;;;;;;5105552;28;20462;-68
2023/05/11 01:31:15;;;;;;;10.60;10.20;;;12.50;99.90;;;;;;5083490;28;21203;-68
2023/05/11 01:33:51;;;;;;;10.60;10.20;;;12.50;99.90;;;;;;5107903;28;20477;-69
2023/05/11 01:36:20;;;;;;;10.90;10.50;;;12.50;99.90;;;;;;5097890;28;20464;-68
2023/05/11 01:38:51;;;;;;;11.37;10.97;;;12.50;99.90;;;;;;5103790;28;20552;-69
2023/05/11 01:41:20;;;;;;;11.20;10.80;;;12.60;99.90;;;;;;5105203;28;20473;-68
2023/05/11 01:43:53;;;;;;;11.53;11.13;;;12.60;99.90;;;;;;5108798;27;20464;-69
2023/05/11 01:46:25;;;;;;;10.60;10.20;;;12.50;99.90;;;;;;5102500;27;20961;-69
2023/05/11 01:48:54;;;;;;;11.20;10.80;;;12.50;99.90;;;;;;5103802;28;20500;-68
2023/05/11 01:51:22;;;;;;;10.90;10.50;;;12.30;99.90;;;;;;5108485;28;20457;-68
2023/05/11 01:53:49;;;;;;;11.00;10.60;;;12.30;99.90;;;;;;5102338;28;20477;-69
2023/05/11 01:56:19;;;;;;;12.67;11.70;;;12.40;99.90;;;;;;5092451;28;20465;-69
2023/05/11 01:58:47;;;;;;;17.00;16.10;;;12.30;99.90;;;;;;5103849;28;20456;-69
2023/05/11 02:01:15;;;;;;;12.27;11.67;;;12.20;99.90;;;;;;5107536;28;20450;-69
2023/05/11 02:03:47;;;;;;;11.00;10.50;;;12.20;99.90;;;;;;5105651;28;20464;-69
2023/05/11 02:06:15;;;;;;;14.37;13.20;;;12.20;99.90;;;;;;5087419;28;20462;-70
2023/05/11 02:08:43;;;;;;;11.73;10.87;;;12.20;99.90;;;;;;5095816;28;20445;-69
2023/05/11 02:11:11;;;;;;;11.67;10.57;;;12.20;99.90;;;;;;5103405;28;20547;-68
2023/05/11 02:13:41;;;;;;;12.10;11.30;;;12.10;99.90;;;;;;5108147;28;20485;-68
2023/05/11 02:16:09;;;;;;;7.90;7.50;;;12.00;99.90;;;;;;5104368;28;20465;-69
2023/05/11 02:18:38;;;;;;;9.90;9.27;;;12.00;99.90;;;;;;5108432;28;20461;-69
2023/05/11 02:21:09;;;;;;;9.83;9.33;;;12.00;99.90;;;;;;5097620;28;20464;-68
2023/05/11 02:23:37;;;;;;;8.10;7.70;;;12.00;99.90;;;;;;5093962;28;20506;-68
2023/05/11 02:26:06;;;;;;;8.30;7.80;;;11.90;99.90;;;;;;5105216;28;20967;-68
2023/05/11 02:28:32;;;;;;;8.53;8.13;;;11.90;99.90;;;;;;5109051;28;20457;-69
2023/05/11 02:31:05;;;;;;;11.70;8.50;;;12.00;99.90;;;;;;5100902;28;20484;-68
2023/05/11 02:33:35;;;;;;;7.40;7.20;;;12.10;99.90;;;;;;5101282;28;20826;-69
2023/05/11 02:36:04;;;;;;;7.87;7.57;;;12.10;99.90;;;;;;5108483;28;20862;-68
2023/05/11 02:38:39;;;;;;;9.07;8.67;;;12.10;99.90;;;;;;5108931;28;20468;-67
2023/05/11 02:41:17;;;;;;;7.50;7.20;;;12.10;99.90;;;;;;5098067;28;20457;-68
2023/05/11 02:43:54;;;;;;;7.30;7.10;;;12.10;99.90;;;;;;5098284;27;20480;-68
2023/05/11 02:46:35;;;;;;;9.30;8.70;;;12.10;99.90;;;;;;5100310;28;20965;-69
2023/05/11 02:49:12;;;;;;;7.00;6.80;;;12.10;99.90;;;;;;5103990;28;20556;-68
2023/05/11 02:51:51;;;;;;;8.20;7.90;;;12.10;99.90;;;;;;5106683;28;20482;-68
2023/05/11 02:54:23;;;;;;;7.37;7.17;;;12.20;99.90;;;;;;5089263;28;21018;-67
2023/05/11 02:56:51;;;;;;;6.97;6.77;;;12.20;99.90;;;;;;5096854;28;20454;-68
2023/05/11 02:59:18;;;;;;;6.90;6.70;;;12.10;99.90;;;;;;5102271;28;20458;-67
2023/05/11 03:01:46;;;;;;;7.90;7.60;;;12.10;99.90;;;;;;5108035;28;20461;-68
2023/05/11 03:04:13;;;;;;;7.93;7.63;;;12.10;99.90;;;;;;5104322;28;20530;-67
2023/05/11 03:06:40;;;;;;;8.00;7.70;;;12.10;99.90;;;;;;5104665;28;20540;-66
2023/05/11 03:09:08;;;;;;;7.50;7.30;;;12.10;99.90;;;;;;5108131;28;20538;-67
2023/05/11 03:11:37;;;;;;;7.80;7.50;;;12.20;99.90;;;;;;5092829;28;20523;-68
2023/05/11 03:14:04;;;;;;;8.17;7.87;;;12.10;99.90;;;;;;5105065;28;20481;-68
2023/05/11 03:16:31;;;;;;;8.43;8.13;;;12.10;99.90;;;;;;5108209;28;20480;-68
2023/05/11 03:19:00;;;;;;;7.77;7.47;;;12.00;99.90;;;;;;5107570;28;20468;-68
2023/05/11 03:21:27;;;;;;;8.80;8.50;;;12.00;99.90;;;;;;5104917;28;20461;-68
2023/05/11 03:23:54;;;;;;;7.57;7.33;;;12.00;99.90;;;;;;5109444;28;20452;-68
2023/05/11 03:26:23;;;;;;;11.77;8.63;;;11.90;99.90;;;;;;5104092;28;20477;-67
2023/05/11 03:28:52;;;;;;;9.73;9.33;;;12.00;99.90;;;;;;5097787;28;20473;-69
2023/05/11 03:31:19;;;;;;;7.43;7.23;;;12.10;99.90;;;;;;5101692;28;20481;-69
2023/05/11 03:33:46;;;;;;;7.30;7.10;;;12.10;99.90;;;;;;5107150;28;20510;-69
2023/05/11 03:36:14;;;;;;;7.53;7.33;;;12.10;99.90;;;;;;5111810;28;20465;-69
2023/05/11 03:38:44;;;;;;;8.30;8.00;;;12.10;99.90;;;;;;5112311;28;20453;-69
2023/05/11 03:41:14;;;;;;;8.03;7.73;;;12.20;99.90;;;;;;5099683;28;20464;-69
2023/05/11 03:43:42;;;;;;;8.43;8.13;;;12.20;99.90;;;;;;5107506;27;20552;-69
2023/05/11 03:46:13;;;;;;;8.40;8.10;;;12.30;99.90;;;;;;5104761;28;20461;-69
2023/05/11 03:48:43;;;;;;;8.90;8.60;;;12.40;99.90;;;;;;5099291;28;20835;-69
2023/05/11 03:51:11;;;;;;;8.80;8.50;;;12.30;99.90;;;;;;5109730;28;20466;-69
2023/05/11 03:53:38;;;;;;;10.10;9.70;;;12.40;99.90;;;;;;5092786;28;20957;-69
2023/05/11 03:56:06;;;;;;;9.80;9.50;;;12.40;99.90;;;;;;5110585;28;21038;-69
2023/05/11 03:58:37;;;;;;;9.57;9.27;;;12.50;99.90;;;;;;5112484;28;20571;-69
2023/05/11 04:01:04;;;;;;;10.50;10.10;;;12.50;99.90;;;;;;5106806;28;20517;-69
2023/05/11 04:03:33;;;;;;;13.30;12.60;;;12.60;99.90;;;;;;5095998;28;20458;-69
2023/05/11 04:05:59;;;;;;;10.63;10.23;;;12.60;99.90;;;;;;5095030;28;20481;-69
2023/05/11 04:08:26;;;;;;;10.33;9.93;;;12.60;99.90;;;;;;5105539;28;20916;-69
2023/05/11 04:10:53;;;;;;;10.73;10.33;;;12.50;99.90;;;;;;5111721;28;20489;-69
2023/05/11 04:13:20;;;;;;;9.87;9.47;;;12.50;99.90;;;;;;5105775;28;20461;-68
2023/05/11 04:15:47;;;;;;;10.20;9.80;;;12.40;99.90;;;;;;5107821;28;20844;-69
2023/05/11 04:18:13;;;;;;;10.57;10.17;;;12.40;99.90;;;;;;5102668;28;20476;-68
2023/05/11 04:20:41;;;;;;;10.20;9.80;;;12.40;99.90;;;;;;5111135;28;20858;-68
2023/05/11 04:23:08;;;;;;;10.40;9.60;;;12.50;99.90;;;;;;5096765;28;20453;-68
2023/05/11 04:25:35;;;;;;;9.17;8.87;;;12.50;99.90;;;;;;5102036;28;20476;-68
2023/05/11 04:28:02;;;;;;;9.40;9.10;;;12.50;99.90;;;;;;5107587;28;20456;-69
2023/05/11 04:30:28;;;;;;;9.87;9.53;;;12.50;99.90;;;;;;5107233;28;20514;-68
2023/05/11 04:32:55;;;;;;;9.70;9.20;;;12.60;99.90;;;;;;5103345;28;20461;-68
2023/05/11 04:35:23;;;;;;;13.67;12.70;;;12.60;99.90;;;;;;5092281;28;20521;-69
2023/05/11 04:37:51;;;;;;;9.50;9.20;;;12.70;99.90;;;;;;5103922;28;20465;-69
2023/05/11 04:40:18;;;;;;;10.73;10.03;;;12.70;99.90;;;;;;5109376;28;20963;-69
2023/05/11 04:42:45;;;;;;;9.90;9.60;;;12.70;99.90;;;;;;5100887;28;20458;-69
2023/05/11 04:45:12;;;;;;;9.90;9.60;;;12.70;99.90;;;;;;5127618;27;20478;-67
2023/05/11 04:47:39;;;;;;;10.67;10.27;;;12.80;99.90;;;;;;5103766;28;20460;-68
2023/05/11 04:50:07;;;;;;;10.03;9.70;;;12.80;99.90;;;;;;5100036;28;20458;-67
2023/05/11 04:52:33;;;;;;;10.07;9.70;;;12.90;99.90;;;;;;5110670;28;20464;-68
2023/05/11 04:55:02;;;;;;;9.90;9.60;;;13.00;99.90;;;;;;5110188;28;20499;-68
2023/05/11 04:57:28;;;;;;;9.60;9.20;;;13.00;99.90;;;;;;5105386;28;20464;-67
2023/05/11 04:59:55;;;;;;;9.73;9.43;;;13.00;99.90;;;;;;5110617;28;20575;-68
2023/05/11 05:02:22;;;;;;;9.30;9.00;;;13.10;99.90;;;;;;5100056;28;20463;-68
2023/05/11 05:04:49;;;;;;;9.33;9.03;;;13.00;99.90;;;;;;5096002;28;20471;-68
2023/05/11 05:07:16;;;;;;;13.40;12.13;;;13.00;99.90;;;;;;5101203;28;20452;-67
2023/05/11 05:09:43;;;;;;;10.30;9.90;;;12.90;99.90;;;;;;5105915;28;20492;-68
2023/05/11 05:12:11;;;;;;;11.43;10.93;;;12.80;99.90;;;;;;5109766;28;20468;-68
2023/05/11 05:14:38;;;;;;;12.27;11.67;;;12.80;99.90;;;;;;5103407;28;20473;-67
2023/05/11 05:17:06;;;;;;;15.37;14.50;;;12.80;99.90;;;;;;5104293;28;20484;-67
2023/05/11 05:19:33;;;;;;;10.50;10.00;;;12.80;99.90;;;;;;5095190;28;21562;-68
2023/05/11 05:22:00;;;;;;;9.27;8.90;;;12.70;99.90;;;;;;5101150;28;20457;-67
2023/05/11 05:24:28;;;;;;;12.23;11.63;;;12.70;99.90;;;;;;5105081;28;20534;-67
2023/05/11 05:26:55;;;;;;;10.20;9.80;;;12.80;99.90;;;;;;5109705;28;20461;-68
2023/05/11 05:29:24;;;;;;;10.50;9.53;;;12.80;99.90;;;;;;5103795;28;20829;-68
2023/05/11 05:31:51;;;;;;;8.90;8.50;;;12.80;99.90;;;;;;5096978;28;20465;-69
2023/05/11 05:34:18;;;;;;;10.50;9.80;;;12.90;99.90;;;;;;5099924;28;20739;-69
2023/05/11 05:36:46;;;;;;;9.13;8.77;;;13.00;99.90;;;;;;5101686;28;20462;-69
2023/05/11 05:39:13;;;;;;;8.70;8.30;;;13.00;99.90;;;;;;5093320;28;20464;-69
2023/05/11 05:41:41;;;;;;;9.13;8.83;;;13.10;99.90;;;;;;5098069;28;21061;-69
2023/05/11 05:44:09;;;;;;;9.60;9.20;;;13.10;99.90;;;;;;5104808;28;20461;-69
2023/05/11 05:46:37;;;;;;;9.77;9.10;;;13.20;99.90;;;;;;5100158;28;20472;-67
2023/05/11 05:49:04;;;;;;;14.77;11.43;;;13.30;99.90;;;;;;5100868;28;20457;-68
2023/05/11 05:51:33;;;;;;;8.67;8.30;;;13.20;99.90;;;;;;5100094;28;20508;-68
2023/05/11 05:54:01;;;;;;;7.23;7.00;;;13.20;99.90;;;;;;5098708;28;20465;-69
2023/05/11 05:56:27;;;;;;;7.53;7.23;;;13.10;99.90;;;;;;5104142;28;20989;-69
2023/05/11 05:58:54;;;;;;;9.50;8.90;;;13.20;99.90;;;;;;5091187;28;20457;-69
2023/05/11 06:01:22;;;;;;;12.73;10.10;;;13.20;99.90;;;;;;5106274;28;21007;-68
2023/05/11 06:03:50;;;;;;;8.63;8.23;;;13.30;99.90;;;;;;5093067;28;21218;-68
2023/05/11 06:06:17;;;;;;;11.47;9.63;;;13.30;99.90;;;;;;5102671;28;20510;-67
2023/05/11 06:08:44;;;;;;;7.33;7.07;;;13.30;99.90;;;;;;5097262;28;20581;-67
2023/05/11 06:11:11;;;;;;;6.13;5.93;;;13.40;99.90;;;;;;5095814;28;20894;-68
2023/05/11 06:13:38;;;;;;;10.60;9.67;;;13.50;99.90;;;;;;5086798;28;20472;-67
2023/05/11 06:16:06;;;;;;;7.80;7.20;;;13.60;99.90;;;;;;5102224;28;20837;-68
2023/05/11 06:18:32;;;;;;;7.23;6.83;;;13.60;99.90;;;;;;5098258;28;21011;-67
2023/05/11 06:21:01;;;;;;;18.87;9.80;;;13.70;99.90;;;;;;5101883;28;20468;-67
2023/05/11 06:23:28;;;;;;;6.03;5.83;;;13.90;99.90;;;;;;5102126;28;20461;-67
2023/05/11 06:25:54;;;;;;;8.90;8.30;;;13.90;99.90;;;;;;5093256;28;20894;-67
2023/05/11 06:28:23;;;;;;;7.60;7.10;;;14.00;99.90;;;;;;5097464;28;20826;-67
2023/05/11 06:31:02;;;;;;;7.93;7.30;;;14.10;99.90;;;;;;5100784;28;20699;-67
2023/05/11 06:33:37;;;;;;;7.70;7.00;;;14.10;99.90;;;;;;5096587;28;20488;-67
2023/05/11 06:36:22;;;;;;;7.67;7.03;;;14.10;99.90;;;;;;5092872;28;20485;-67
2023/05/11 06:38:57;;;;;;;7.00;6.67;;;13.80;99.90;;;;;;5096984;28;20468;-67
2023/05/11 06:41:25;;;;;;;11.73;9.33;;;13.70;99.90;;;;;;5091849;28;20554;-68
2023/05/11 06:43:52;;;;;;;6.60;6.30;;;13.90;99.90;;;;;;5098987;27;20536;-67
2023/05/11 06:46:19;;;;;;;17.70;12.67;;;14.10;99.90;;;;;;5091702;28;20457;-67
2023/05/11 06:48:45;;;;;;;7.83;7.43;;;14.20;99.90;;;;;;5100967;28;20461;-66
2023/05/11 06:51:15;;;;;;;9.50;8.60;;;14.10;99.90;;;;;;5100412;28;20462;-68
2023/05/11 06:53:41;;;;;;;9.93;9.30;;;14.20;99.90;;;;;;5089020;28;20457;-67
2023/05/11 06:56:08;;;;;;;10.60;9.67;;;14.20;99.90;;;;;;5096938;28;20500;-67
2023/05/11 06:58:35;;;;;;;5.77;5.47;;;14.20;99.90;;;;;;5094973;28;20464;-67
2023/05/11 07:01:04;;;;;;;10.67;9.53;;;14.20;99.90;;;;;;5095454;28;20457;-68
2023/05/11 07:03:31;;;;;;;12.17;6.90;;;14.20;99.90;;;;;;5106797;28;20445;-67
2023/05/11 07:05:58;;;;;;;10.83;9.90;;;14.20;99.90;;;;;;5105529;28;20453;-67
2023/05/11 07:08:26;;;;;;;11.07;9.77;;;14.20;99.90;;;;;;5100889;28;21170;-67
2023/05/11 07:10:53;;;;;;;4.83;4.73;;;14.20;99.90;;;;;;5092950;28;20493;-66
2023/05/11 07:13:21;;;;;;;9.80;8.23;;;14.30;99.90;;;;;;5091794;28;20694;-65
2023/05/11 07:15:48;;;;;;;10.60;9.77;;;14.30;99.90;;;;;;5106218;28;20991;-68
2023/05/11 07:18:15;;;;;;;11.07;7.33;;;14.10;99.90;;;;;;5094049;28;20478;-68
2023/05/11 07:20:43;;;;;;;10.70;8.07;;;14.00;99.90;;;;;;5095886;28;20473;-67
2023/05/11 07:23:10;;;;;;;5.53;5.33;;;13.70;99.90;;;;;;5097980;28;20476;-68
2023/05/11 07:25:38;;;;;;;6.00;5.80;;;13.80;99.90;;;;;;5096562;28;20499;-67
2023/05/11 07:28:05;;;;;;;9.53;8.80;;;14.00;99.90;;;;;;5092506;28;20491;-67
2023/05/11 07:30:33;;;;;;;7.90;7.50;;;14.10;99.90;;;;;;5099049;28;20559;-68
2023/05/11 07:33:01;;;;;;;10.80;8.73;;;14.30;99.90;;;;;;5090456;28;20476;-67
2023/05/11 07:35:28;;;;;;;9.87;9.17;;;14.30;99.90;;;;;;5088935;28;20486;-68
2023/05/11 07:37:55;;;;;;;10.50;8.50;;;14.40;99.90;;;;;;5095352;28;20548;-67
2023/05/11 07:40:23;;;;;;;8.27;7.80;;;14.50;99.90;;;;;;5084769;28;20457;-66
2023/05/11 07:42:52;;;;;;;8.27;7.90;;;14.40;99.90;;;;;;5091153;28;20490;-67
2023/05/11 07:45:20;;;;;;;9.40;8.63;;;14.50;99.90;;;;;;5093617;28;20457;-67
2023/05/11 07:47:47;;;;;;;9.07;8.37;;;14.50;99.90;;;;;;5102946;22;20493;-67
2023/05/11 07:50:14;;;;;;;7.87;7.47;;;14.80;99.90;;;;;;5078945;28;20456;-66
2023/05/11 07:52:41;;;;;;;8.87;8.27;;;14.90;99.90;;;;;;5080811;28;20450;-68
2023/05/11 07:55:08;;;;;;;8.00;7.60;;;14.80;99.90;;;;;;5038924;28;20495;-66
2023/05/11 07:57:35;;;;;;;8.27;7.90;;;14.80;99.90;;;;;;5080700;28;20523;-66
2023/05/11 08:00:06;;;;;;;10.37;9.87;;;14.60;99.90;;;;;;5077395;28;20555;-67
2023/05/11 08:02:32;;;;;;;11.20;10.20;;;14.80;99.90;;;;;;5075374;28;20879;-67
2023/05/11 08:04:59;;;;;;;9.27;8.73;;;14.80;99.90;;;;;;5073839;28;20462;-67
2023/05/11 08:07:26;;;;;;;9.37;8.77;;;14.70;99.90;;;;;;5032059;28;20486;-67
2023/05/11 08:09:53;;;;;;;7.47;7.27;;;14.90;99.90;;;;;;5081602;28;20458;-67
2023/05/11 08:12:20;;;;;;;9.20;8.70;;;15.20;99.90;;;;;;5085587;28;20450;-67
2023/05/11 08:14:47;;;;;;;10.03;9.13;;;15.30;99.90;;;;;;5081797;28;21020;-67
2023/05/11 08:17:15;;;;;;;18.27;12.40;;;15.40;99.90;;;;;;5085169;28;20493;-66
2023/05/11 08:19:42;;;;;;;15.70;14.27;;;15.30;99.90;;;;;;5080442;28;20825;-66
2023/05/11 08:22:08;;;;;;;15.93;14.27;;;14.90;99.90;;;;;;5083629;28;20454;-67
2023/05/11 08:24:35;;;;;;;12.30;11.43;;;14.80;99.90;;;;;;5073564;28;20458;-66
2023/05/11 08:27:02;;;;;;;14.10;13.07;;;14.70;99.90;;;;;;5068526;28;20744;-67
2023/05/11 08:29:30;;;;;;;10.20;9.60;;;14.60;99.90;;;;;;5083623;28;20461;-68
2023/05/11 08:31:57;;;;;;;9.80;9.30;;;14.70;99.90;;;;;;5070359;28;21139;-69
2023/05/11 08:34:26;;;;;;;10.80;10.07;;;15.00;99.90;;;;;;5081720;28;20549;-68
2023/05/11 08:36:54;;;;;;;13.70;12.70;;;15.10;99.90;;;;;;5076004;28;20478;-67
2023/05/11 08:39:22;;;;;;;10.37;9.97;;;15.20;99.90;;;;;;5082247;28;20802;-67
2023/05/11 08:41:49;;;;;;;8.80;8.40;;;15.30;99.90;;;;;;5071840;28;20463;-68
2023/05/11 08:44:18;;;;;;;14.27;13.07;;;15.30;99.90;;;;;;5077810;28;20464;-68
2023/05/11 08:46:47;;;;;;;10.20;9.60;;;15.30;99.90;;;;;;5079156;28;20474;-67
2023/05/11 08:49:15;;;;;;;10.30;9.80;;;15.50;99.90;;;;;;5094454;28;20500;-67
2023/05/11 08:51:43;;;;;;;12.10;11.30;;;15.70;99.90;;;;;;5102368;28;20469;-68
2023/05/11 08:54:11;;;;;;;18.37;16.37;;;15.80;99.90;;;;;;5099476;28;20466;-67
2023/05/11 08:56:40;;;;;;;16.93;15.20;;;15.80;99.90;;;;;;5096351;27;20493;-68
2023/05/11 08:59:08;;;;;;;13.27;12.37;;;16.00;99.90;;;;;;5104177;28;20855;-69
2023/05/11 09:01:36;;;;;;;15.47;14.27;;;16.10;99.90;;;;;;5095376;28;20453;-68
2023/05/11 09:04:04;;;;;;;13.83;13.03;;;16.30;99.90;;;;;;5093240;28;20572;-68
2023/05/11 09:06:32;;;;;;;14.70;13.50;;;16.50;99.90;;;;;;5102425;28;20862;-68
2023/05/11 09:09:01;;;;;;;13.40;12.73;;;16.70;99.90;;;;;;5099122;27;20454;-68
2023/05/11 09:11:29;;;;;;;14.50;13.80;;;16.90;99.90;;;;;;5105140;28;20827;-68
2023/05/11 09:13:56;;;;;;;13.40;12.80;;;17.10;99.90;;;;;;5103148;27;20489;-68
2023/05/11 09:16:23;;;;;;;16.33;15.33;;;17.30;99.90;;;;;;5101375;27;20502;-68
2023/05/11 09:18:52;;;;;;;16.83;15.43;;;17.50;99.90;;;;;;5104201;28;20461;-69
2023/05/11 09:21:19;;;;;;;17.30;16.40;;;17.30;99.90;;;;;;5103492;28;20460;-68
2023/05/11 09:23:49;;;;;;;14.83;14.10;;;17.40;99.90;;;;;;5101193;27;20764;-68
2023/05/11 09:26:23;;;;;;;15.67;14.90;;;17.70;99.90;;;;;;5100830;28;20999;-69
2023/05/11 09:28:52;;;;;;;17.73;16.13;;;17.80;99.90;;;;;;5102870;28;20979;-69
2023/05/11 09:31:39;;;;;;;14.70;14.07;;;18.20;99.90;;;;;;5098269;28;20553;-68
2023/05/11 09:34:12;;;;;;;18.77;16.53;;;18.20;99.90;;;;;;5097553;28;20461;-68
2023/05/11 09:36:40;;;;;;;16.73;15.30;;;18.30;99.90;;;;;;5097833;27;20493;-69
2023/05/11 09:39:07;;;;;;;18.47;16.97;;;18.20;99.90;;;;;;5105783;28;20514;-69
2023/05/11 09:41:36;;;;;;;16.93;15.80;;;18.50;99.90;;;;;;5099909;27;20457;-68
2023/05/11 09:44:09;;;;;;;18.93;17.83;;;18.70;99.90;;;;;;5097413;28;20527;-68
2023/05/11 09:46:37;;;;;;;18.40;17.13;;;19.10;99.90;;;;;;5099016;28;20462;-69
2023/05/11 09:49:05;;;;;;;15.43;14.63;;;18.60;99.90;;;;;;5096420;28;21032;-68
2023/05/11 09:51:33;;;;;;;18.37;17.20;;;18.80;99.90;;;;;;5098143;28;20911;-69
2023/05/11 09:54:01;;;;;;;20.23;18.43;;;18.90;99.90;;;;;;5104060;28;20460;-68
2023/05/11 09:56:47;;;;;;;17.53;16.63;;;18.80;99.90;;;;;;5103760;28;20492;-68
2023/05/11 09:59:36;;;;;;;17.60;16.60;;;19.00;99.90;;;;;;5107353;28;20498;-65
2023/05/11 10:02:20;;;;;;;16.13;15.33;;;18.90;99.90;;;;;;5103949;28;20972;-67
2023/05/11 10:04:47;;;;;;;19.00;17.87;;;18.70;99.90;;;;;;5102507;27;20481;-67
2023/05/11 10:07:24;;;;;;;16.00;15.20;;;19.00;99.90;;;;;;5105539;28;20457;-69
2023/05/11 10:09:53;;;;;;;16.43;15.60;;;19.30;99.90;;;;;;5097019;27;20453;-67
2023/05/11 10:12:24;;;;;;;16.87;16.03;;;19.00;99.90;;;;;;5100005;28;20476;-67
2023/05/11 10:14:55;;;;;;;18.70;17.53;;;19.20;99.90;;;;;;5106020;28;20457;-68
2023/05/11 10:17:22;;;;;;;17.47;16.47;;;18.80;99.90;;;;;;5102181;27;20490;-67
2023/05/11 10:19:52;;;;;;;16.77;15.87;;;18.90;99.90;;;;;;5107195;28;20825;-66
2023/05/11 10:22:21;;;;;;;16.73;16.00;;;18.90;99.90;;;;;;5097997;27;20484;-67
2023/05/11 10:24:48;;;;;;;16.03;15.03;;;18.70;99.90;;;;;;5106458;28;20544;-68
2023/05/11 10:27:15;;;;;;;15.83;15.03;;;18.40;99.90;;;;;;5107045;28;20514;-67
2023/05/11 10:29:44;;;;;;;15.70;15.00;;;18.30;99.90;;;;;;5098282;28;20453;-68
2023/05/11 10:32:12;;;;;;;16.23;15.40;;;18.40;99.90;;;;;;5099387;27;20622;-68
2023/05/11 10:34:39;;;;;;;19.30;17.90;;;18.50;99.90;;;;;;5087425;27;20461;-68
2023/05/11 10:37:06;;;;;;;16.17;15.37;;;18.20;99.90;;;;;;5106128;28;20566;-68
2023/05/11 10:39:36;;;;;;;16.43;15.50;;;18.20;99.90;;;;;;5099128;28;20461;-67
2023/05/11 10:42:17;;;;;;;14.40;13.80;;;18.10;99.90;;;;;;5099678;28;20968;-67
2023/05/11 10:45:13;;;;;;;17.10;16.10;;;17.90;99.90;;;;;;5100786;28;20466;-67
2023/05/11 10:48:10;;;;;;;15.47;14.63;;;17.20;99.90;;;;;;5097909;28;20525;-68
2023/05/11 10:50:52;;;;;;;23.40;16.63;;;16.80;99.90;;;;;;5029267;28;20457;-68
2023/05/11 10:53:38;;;;;;;18.10;17.00;;;16.60;99.90;;;;;;5080583;28;20771;-67
2023/05/11 10:56:17;;;;;;;16.17;15.27;;;16.70;99.90;;;;;;5081771;28;20458;-67
2023/05/11 10:59:07;;;;;;;19.47;17.63;;;16.90;99.90;;;;;;5084956;28;20469;-69
2023/05/11 11:01:40;;;;;;;15.47;14.57;;;17.10;99.90;;;;;;5080893;28;20462;-68
2023/05/11 11:04:09;;;;;;;15.83;14.80;;;17.10;99.90;;;;;;5093062;28;20788;-68
2023/05/11 11:06:37;;;;;;;20.43;18.93;;;17.10;99.90;;;;;;5084084;28;20460;-67
2023/05/11 11:09:07;;;;;;;17.57;16.50;;;17.20;99.90;;;;;;5081637;28;20470;-67
2023/05/11 11:11:35;;;;;;;16.83;15.87;;;17.10;99.90;;;;;;5078146;28;20506;-68
2023/05/11 11:14:04;;;;;;;14.30;13.70;;;17.10;99.90;;;;;;5086641;28;20458;-68
2023/05/11 11:16:32;;;;;;;14.90;14.10;;;17.20;99.90;;;;;;5078005;28;20513;-68
2023/05/11 11:19:41;;;;;;;16.93;15.83;;;17.30;99.90;;;;;;5073381;28;20465;-68
2023/05/11 11:22:45;;;;;;;17.73;16.17;;;17.60;99.90;;;;;;5087321;28;20454;-69
2023/05/11 11:25:13;;;;;;;17.07;15.97;;;17.50;99.90;;;;;;5088134;28;20470;-68
2023/05/11 11:27:57;;;;;;;18.70;17.40;;;17.60;99.90;;;;;;5082070;28;20577;-68
2023/05/11 11:30:27;;;;;;;15.07;14.33;;;17.50;99.90;;;;;;5084112;28;20894;-68
2023/05/11 11:32:56;;;;;;;14.60;14.00;;;17.40;99.90;;;;;;5072915;28;20521;-68
2023/05/11 11:35:49;;;;;;;16.63;15.30;;;17.50;99.90;;;;;;5076453;28;20470;-68
2023/05/11 11:38:17;;;;;;;17.00;15.33;;;17.70;99.90;;;;;;5072064;28;20488;-69
2023/05/11 11:40:48;;;;;;;16.20;15.03;;;18.10;99.90;;;;;;5078852;28;20468;-69
2023/05/11 11:43:18;;;;;;;15.30;14.30;;;18.20;99.90;;;;;;5084874;28;20467;-70
2023/05/11 11:45:53;;;;;;;16.00;15.00;;;18.40;99.90;;;;;;5075838;28;20814;-69
2023/05/11 11:48:29;;;;;;;17.53;16.33;;;18.50;99.90;;;;;;5078923;28;20481;-69
2023/05/11 11:51:05;;;;;;;14.53;13.93;;;18.50;99.90;;;;;;5086627;28;20822;-69
2023/05/11 11:54:01;;;;;;;16.60;15.40;;;18.80;99.90;;;;;;5084895;28;20461;-69
2023/05/11 11:56:42;;;;;;;15.60;14.80;;;19.10;99.90;;;;;;5079857;28;20465;-70
2023/05/11 11:59:12;;;;;;;17.70;16.43;;;19.40;99.90;;;;;;5074707;28;20496;-69
2023/05/11 12:01:41;;;;;;;16.03;15.13;;;19.60;99.90;;;;;;5084454;28;20474;-69
2023/05/11 12:04:36;;;;;;;14.03;13.43;;;19.50;99.90;;;;;;5081567;28;20460;-68
2023/05/11 12:07:08;;;;;;;16.50;15.60;;;19.60;99.90;;;;;;5050967;28;20462;-69
2023/05/11 12:09:37;;;;;;;18.57;17.30;;;19.80;99.90;;;;;;5081020;28;21032;-68
2023/05/11 12:12:06;;;;;;;15.97;15.07;;;19.30;99.90;;;;;;5089192;28;21027;-69
2023/05/11 12:14:34;;;;;;;17.90;16.77;;;19.80;99.90;;;;;;5089259;28;20461;-69
2023/05/11 12:17:12;;;;;;;14.50;13.90;;;19.80;99.90;;;;;;5084205;28;20493;-68
2023/05/11 12:19:40;;;;;;;26.00;20.10;;;20.30;99.90;;;;;;5087851;28;20461;-69
2023/05/11 12:22:09;;;;;;;17.90;16.77;;;20.30;99.90;;;;;;5078461;28;20582;-67
2023/05/11 12:24:37;;;;;;;16.80;15.50;;;20.40;99.90;;;;;;5082017;28;20454;-68
2023/05/11 12:27:04;;;;;;;16.10;15.20;;;20.50;99.90;;;;;;5084577;28;20458;-68
2023/05/11 12:29:31;;;;;;;16.07;15.27;;;20.30;99.90;;;;;;5085471;28;20462;-67
2023/05/11 12:31:59;;;;;;;16.63;15.40;;;20.20;99.90;;;;;;5089259;28;20883;-68
2023/05/11 12:34:26;;;;;;;18.40;16.67;;;19.90;99.90;;;;;;5088090;28;20481;-69
2023/05/11 12:36:54;;;;;;;16.57;15.57;;;20.40;99.90;;;;;;5082293;28;20498;-68
2023/05/11 12:39:24;;;;;;;16.23;14.60;;;20.00;99.90;;;;;;5084679;28;20458;-68
2023/05/11 12:41:52;;;;;;;17.37;16.23;;;20.10;99.90;;;;;;5080001;28;20477;-68
2023/05/11 12:44:21;;;;;;;15.60;14.70;;;20.50;99.90;;;;;;5097518;28;20449;-69
2023/05/11 12:46:49;;;;;;;16.23;15.23;;;20.40;99.90;;;;;;5080220;28;20840;-67
2023/05/11 12:49:17;;;;;;;16.53;15.33;;;20.30;99.90;;;;;;5098451;28;20519;-68